sensor_id;sensor_type;location;lat;lon;timestamp;temperature;humidity
23991;DHT22;12205;50.600;4.608;2023-04-06T00:00:58;5.40;99.90
23991;DHT22;12205;50.600;4.608;2023-04-06T00:03:25;5.30;99.90
23991;DHT22;12205;50.600;4.608;2023-04-06T00:05:52;5.40;99.90
23991;DHT22;12205;50.600;4.608;2023-04-06T00:08:19;5.40;99.90
23991;DHT22;12205;50.600;4.608;2023-04-06T00:10:50;5.40;99.90
23991;DHT22;12205;50.600;4.608;2023-04-06T00:13:17;5.40;99.90
23991;DHT22;12205;50.600;4.608;2023-04-06T00:15:45;5.40;99.90
23991;DHT22;12205;50.600;4.608;2023-04-06T00:18:12;5.40;99.90
23991;DHT22;12205;50.600;4.608;2023-04-06T00:20:39;5.40;99.90
23991;DHT22;12205;50.600;4.608;2023-04-06T00:23:07;5.40;99.90
23991;DHT22;12205;50.600;4.608;2023-04-06T00:25:34;5.40;99.90
23991;DHT22;12205;50.600;4.608;2023-04-06T00:28:03;5.40;99.90
23991;DHT22;12205;50.600;4.608;2023-04-06T00:30:30;5.50;99.90
23991;DHT22;12205;50.600;4.608;2023-04-06T00:32:57;5.50;99.90
23991;DHT22;12205;50.600;4.608;2023-04-06T00:35:25;5.50;99.90
23991;DHT22;12205;50.600;4.608;2023-04-06T00:37:52;5.50;99.90
23991;DHT22;12205;50.600;4.608;2023-04-06T00:40:19;5.50;99.90
23991;DHT22;12205;50.600;4.608;2023-04-06T00:42:48;5.60;99.90
23991;DHT22;12205;50.600;4.608;2023-04-06T00:45:17;5.60;99.90
23991;DHT22;12205;50.600;4.608;2023-04-06T00:47:45;5.60;99.90
23991;DHT22;12205;50.600;4.608;2023-04-06T00:50:12;5.60;99.90
23991;DHT22;12205;50.600;4.608;2023-04-06T00:52:39;5.70;99.90
23991;DHT22;12205;50.600;4.608;2023-04-06T00:55:09;5.70;99.90
23991;DHT22;12205;50.600;4.608;2023-04-06T00:57:40;5.70;99.90
23991;DHT22;12205;50.600;4.608;2023-04-06T01:00:09;5.70;99.90
23991;DHT22;12205;50.600;4.608;2023-04-06T01:02:40;5.70;99.90
23991;DHT22;12205;50.600;4.608;2023-04-06T01:05:09;5.70;99.90
23991;DHT22;12205;50.600;4.608;2023-04-06T01:07:46;5.70;99.90
23991;DHT22;12205;50.600;4.608;2023-04-06T01:10:24;5.80;99.90
23991;DHT22;12205;50.600;4.608;2023-04-06T01:12:57;5.80;99.90
23991;DHT22;12205;50.600;4.608;2023-04-06T01:15:59;5.80;99.90
23991;DHT22;12205;50.600;4.608;2023-04-06T01:18:47;5.80;99.90
23991;DHT22;12205;50.600;4.608;2023-04-06T01:21:19;5.90;99.90
23991;DHT22;12205;50.600;4.608;2023-04-06T01:24:18;5.90;99.90
23991;DHT22;12205;50.600;4.608;2023-04-06T01:27:07;5.90;99.90
23991;DHT22;12205;50.600;4.608;2023-04-06T01:29:46;5.90;99.90
23991;DHT22;12205;50.600;4.608;2023-04-06T01:32:20;6.00;99.90
23991;DHT22;12205;50.600;4.608;2023-04-06T01:34:50;5.90;99.90
23991;DHT22;12205;50.600;4.608;2023-04-06T01:37:18;6.00;99.90
23991;DHT22;12205;50.600;4.608;2023-04-06T01:39:46;6.00;99.90
23991;DHT22;12205;50.600;4.608;2023-04-06T01:42:24;6.00;99.90
23991;DHT22;12205;50.600;4.608;2023-04-06T01:44:52;6.10;99.90
23991;DHT22;12205;50.600;4.608;2023-04-06T01:47:19;6.10;99.90
23991;DHT22;12205;50.600;4.608;2023-04-06T01:49:46;6.10;99.90
23991;DHT22;12205;50.600;4.608;2023-04-06T01:52:14;6.10;99.90
23991;DHT22;12205;50.600;4.608;2023-04-06T01:54:47;6.20;99.90
23991;DHT22;12205;50.600;4.608;2023-04-06T01:57:21;6.10;99.90
23991;DHT22;12205;50.600;4.608;2023-04-06T01:59:55;6.10;99.90
23991;DHT22;12205;50.600;4.608;2023-04-06T02:02:39;6.20;99.90
23991;DHT22;12205;50.600;4.608;2023-04-06T02:05:12;6.20;99.90
23991;DHT22;12205;50.600;4.608;2023-04-06T02:07:40;6.30;99.90
23991;DHT22;12205;50.600;4.608;2023-04-06T02:10:13;6.30;99.90
23991;DHT22;12205;50.600;4.608;2023-04-06T02:12:42;6.30;99.90
23991;DHT22;12205;50.600;4.608;2023-04-06T02:15:15;6.30;99.90
23991;DHT22;12205;50.600;4.608;2023-04-06T02:17:43;6.30;99.90
23991;DHT22;12205;50.600;4.608;2023-04-06T02:20:10;6.30;99.90
23991;DHT22;12205;50.600;4.608;2023-04-06T02:22:37;6.30;99.90
23991;DHT22;12205;50.600;4.608;2023-04-06T02:25:06;6.30;99.90
23991;DHT22;12205;50.600;4.608;2023-04-06T02:27:35;6.30;99.90
23991;DHT22;12205;50.600;4.608;2023-04-06T02:30:04;6.20;99.90
23991;DHT22;12205;50.600;4.608;2023-04-06T02:32:32;6.20;99.90
23991;DHT22;12205;50.600;4.608;2023-04-06T02:35:00;6.20;99.90
23991;DHT22;12205;50.600;4.608;2023-04-06T02:37:29;6.20;99.90
23991;DHT22;12205;50.600;4.608;2023-04-06T02:39:58;6.20;99.90
23991;DHT22;12205;50.600;4.608;2023-04-06T02:42:27;6.10;99.90
23991;DHT22;12205;50.600;4.608;2023-04-06T02:44:56;6.10;99.90
23991;DHT22;12205;50.600;4.608;2023-04-06T02:47:27;6.10;99.90
23991;DHT22;12205;50.600;4.608;2023-04-06T02:49:55;6.10;99.90
23991;DHT22;12205;50.600;4.608;2023-04-06T02:52:22;6.10;99.90
23991;DHT22;12205;50.600;4.608;2023-04-06T02:54:49;6.10;99.90
23991;DHT22;12205;50.600;4.608;2023-04-06T02:57:23;6.10;99.90
23991;DHT22;12205;50.600;4.608;2023-04-06T02:59:50;6.10;99.90
23991;DHT22;12205;50.600;4.608;2023-04-06T03:02:24;6.00;99.90
23991;DHT22;12205;50.600;4.608;2023-04-06T03:04:58;6.00;99.90
23991;DHT22;12205;50.600;4.608;2023-04-06T03:07:32;6.00;99.90
23991;DHT22;12205;50.600;4.608;2023-04-06T03:09:59;6.00;99.90
23991;DHT22;12205;50.600;4.608;2023-04-06T03:12:29;6.00;99.90
23991;DHT22;12205;50.600;4.608;2023-04-06T03:15:17;5.90;99.90
23991;DHT22;12205;50.600;4.608;2023-04-06T03:17:51;5.90;99.90
23991;DHT22;12205;50.600;4.608;2023-04-06T03:20:41;5.90;99.90
23991;DHT22;12205;50.600;4.608;2023-04-06T03:23:09;5.90;99.90
23991;DHT22;12205;50.600;4.608;2023-04-06T03:25:40;5.90;99.90
23991;DHT22;12205;50.600;4.608;2023-04-06T03:28:10;5.90;99.90
23991;DHT22;12205;50.600;4.608;2023-04-06T03:30:47;5.90;99.90
23991;DHT22;12205;50.600;4.608;2023-04-06T03:33:21;5.90;99.90
23991;DHT22;12205;50.600;4.608;2023-04-06T03:35:54;5.90;99.90
23991;DHT22;12205;50.600;4.608;2023-04-06T03:38:24;5.90;99.90
23991;DHT22;12205;50.600;4.608;2023-04-06T03:40:53;5.90;99.90
23991;DHT22;12205;50.600;4.608;2023-04-06T03:43:24;5.90;99.90
23991;DHT22;12205;50.600;4.608;2023-04-06T03:45:51;5.90;99.90
23991;DHT22;12205;50.600;4.608;2023-04-06T03:48:20;5.90;99.90
23991;DHT22;12205;50.600;4.608;2023-04-06T03:50:48;5.80;99.90
23991;DHT22;12205;50.600;4.608;2023-04-06T03:53:15;5.80;99.90
23991;DHT22;12205;50.600;4.608;2023-04-06T03:55:42;5.80;99.90
23991;DHT22;12205;50.600;4.608;2023-04-06T03:58:10;5.80;99.90
23991;DHT22;12205;50.600;4.608;2023-04-06T04:00:37;5.80;99.90
23991;DHT22;12205;50.600;4.608;2023-04-06T04:03:04;5.80;99.90
23991;DHT22;12205;50.600;4.608;2023-04-06T04:05:33;5.70;99.90
23991;DHT22;12205;50.600;4.608;2023-04-06T04:08:00;5.70;99.90
23991;DHT22;12205;50.600;4.608;2023-04-06T04:10:27;5.80;99.90
23991;DHT22;12205;50.600;4.608;2023-04-06T04:12:55;5.80;99.90
23991;DHT22;12205;50.600;4.608;2023-04-06T04:15:22;5.80;99.90
23991;DHT22;12205;50.600;4.608;2023-04-06T04:17:49;5.80;99.90
23991;DHT22;12205;50.600;4.608;2023-04-06T04:20:17;5.80;99.90
23991;DHT22;12205;50.600;4.608;2023-04-06T04:22:45;5.80;99.90
23991;DHT22;12205;50.600;4.608;2023-04-06T04:25:13;5.80;99.90
23991;DHT22;12205;50.600;4.608;2023-04-06T04:27:45;5.90;99.90
23991;DHT22;12205;50.600;4.608;2023-04-06T04:30:13;5.90;99.90
23991;DHT22;12205;50.600;4.608;2023-04-06T04:32:41;5.90;99.90
23991;DHT22;12205;50.600;4.608;2023-04-06T04:35:09;5.90;99.90
23991;DHT22;12205;50.600;4.608;2023-04-06T04:37:40;5.90;99.90
23991;DHT22;12205;50.600;4.608;2023-04-06T04:40:11;5.90;99.90
23991;DHT22;12205;50.600;4.608;2023-04-06T04:42:49;5.90;99.90
23991;DHT22;12205;50.600;4.608;2023-04-06T04:45:28;5.90;99.90
23991;DHT22;12205;50.600;4.608;2023-04-06T04:47:58;5.90;99.90
23991;DHT22;12205;50.600;4.608;2023-04-06T04:50:30;5.90;99.90
23991;DHT22;12205;50.600;4.608;2023-04-06T04:52:58;5.80;99.90
23991;DHT22;12205;50.600;4.608;2023-04-06T04:55:27;5.80;99.90
23991;DHT22;12205;50.600;4.608;2023-04-06T04:57:58;5.80;99.90
23991;DHT22;12205;50.600;4.608;2023-04-06T05:00:39;5.90;99.90
23991;DHT22;12205;50.600;4.608;2023-04-06T05:03:06;5.90;99.90
23991;DHT22;12205;50.600;4.608;2023-04-06T05:05:37;5.90;99.90
23991;DHT22;12205;50.600;4.608;2023-04-06T05:08:05;5.90;99.90
23991;DHT22;12205;50.600;4.608;2023-04-06T05:10:47;5.90;99.90
23991;DHT22;12205;50.600;4.608;2023-04-06T05:13:14;6.00;99.90
23991;DHT22;12205;50.600;4.608;2023-04-06T05:15:44;6.00;99.90
23991;DHT22;12205;50.600;4.608;2023-04-06T05:18:21;6.00;99.90
23991;DHT22;12205;50.600;4.608;2023-04-06T05:20:49;6.00;99.90
23991;DHT22;12205;50.600;4.608;2023-04-06T05:23:19;6.10;99.90
23991;DHT22;12205;50.600;4.608;2023-04-06T05:25:48;6.10;99.90
23991;DHT22;12205;50.600;4.608;2023-04-06T05:28:19;6.10;99.90
23991;DHT22;12205;50.600;4.608;2023-04-06T05:30:46;6.10;99.90
23991;DHT22;12205;50.600;4.608;2023-04-06T05:33:15;6.20;99.90
23991;DHT22;12205;50.600;4.608;2023-04-06T05:36:03;6.20;99.90
23991;DHT22;12205;50.600;4.608;2023-04-06T05:38:34;6.20;99.90
23991;DHT22;12205;50.600;4.608;2023-04-06T05:41:11;6.30;99.90
23991;DHT22;12205;50.600;4.608;2023-04-06T05:43:40;6.30;99.90
23991;DHT22;12205;50.600;4.608;2023-04-06T05:46:08;6.40;99.90
23991;DHT22;12205;50.600;4.608;2023-04-06T05:48:35;6.40;99.90
23991;DHT22;12205;50.600;4.608;2023-04-06T05:51:03;6.40;99.90
23991;DHT22;12205;50.600;4.608;2023-04-06T05:53:39;6.40;99.90
23991;DHT22;12205;50.600;4.608;2023-04-06T05:56:06;6.50;99.90
23991;DHT22;12205;50.600;4.608;2023-04-06T05:58:36;6.50;99.90
23991;DHT22;12205;50.600;4.608;2023-04-06T06:01:04;6.60;99.90
23991;DHT22;12205;50.600;4.608;2023-04-06T06:03:39;6.70;99.90
23991;DHT22;12205;50.600;4.608;2023-04-06T06:06:06;6.70;99.90
23991;DHT22;12205;50.600;4.608;2023-04-06T06:08:43;6.80;99.90
23991;DHT22;12205;50.600;4.608;2023-04-06T06:11:14;6.90;99.90
23991;DHT22;12205;50.600;4.608;2023-04-06T06:13:43;7.00;99.90
23991;DHT22;12205;50.600;4.608;2023-04-06T06:16:10;7.10;99.90
23991;DHT22;12205;50.600;4.608;2023-04-06T06:18:43;7.10;99.90
23991;DHT22;12205;50.600;4.608;2023-04-06T06:21:10;7.20;99.90
23991;DHT22;12205;50.600;4.608;2023-04-06T06:23:38;7.20;99.90
23991;DHT22;12205;50.600;4.608;2023-04-06T06:26:06;7.30;99.90
23991;DHT22;12205;50.600;4.608;2023-04-06T06:28:33;7.40;99.90
23991;DHT22;12205;50.600;4.608;2023-04-06T06:31:02;7.40;99.90
23991;DHT22;12205;50.600;4.608;2023-04-06T06:33:29;7.50;99.90
23991;DHT22;12205;50.600;4.608;2023-04-06T06:35:58;7.50;99.90
23991;DHT22;12205;50.600;4.608;2023-04-06T06:38:26;7.60;99.90
23991;DHT22;12205;50.600;4.608;2023-04-06T06:40:53;7.70;99.90
23991;DHT22;12205;50.600;4.608;2023-04-06T06:43:23;7.70;99.90
23991;DHT22;12205;50.600;4.608;2023-04-06T06:46:06;7.70;99.90
23991;DHT22;12205;50.600;4.608;2023-04-06T06:48:34;7.80;99.90
23991;DHT22;12205;50.600;4.608;2023-04-06T06:51:01;7.90;99.90
23991;DHT22;12205;50.600;4.608;2023-04-06T06:53:28;8.00;99.90
23991;DHT22;12205;50.600;4.608;2023-04-06T06:55:55;8.00;99.90
23991;DHT22;12205;50.600;4.608;2023-04-06T06:58:23;7.90;99.90
23991;DHT22;12205;50.600;4.608;2023-04-06T07:00:51;8.00;99.90
23991;DHT22;12205;50.600;4.608;2023-04-06T07:03:24;8.00;99.90
23991;DHT22;12205;50.600;4.608;2023-04-06T07:05:51;8.00;99.90
23991;DHT22;12205;50.600;4.608;2023-04-06T07:08:20;7.90;99.90
23991;DHT22;12205;50.600;4.608;2023-04-06T07:10:47;7.90;99.90
23991;DHT22;12205;50.600;4.608;2023-04-06T07:13:16;7.90;99.90
23991;DHT22;12205;50.600;4.608;2023-04-06T07:15:47;7.90;99.90
23991;DHT22;12205;50.600;4.608;2023-04-06T07:18:15;7.90;99.90
23991;DHT22;12205;50.600;4.608;2023-04-06T07:20:44;7.90;99.90
23991;DHT22;12205;50.600;4.608;2023-04-06T07:23:12;7.90;99.90
23991;DHT22;12205;50.600;4.608;2023-04-06T07:25:39;7.90;99.90
23991;DHT22;12205;50.600;4.608;2023-04-06T07:28:09;7.90;99.90
23991;DHT22;12205;50.600;4.608;2023-04-06T07:30:37;7.90;99.90
23991;DHT22;12205;50.600;4.608;2023-04-06T07:33:07;7.90;99.90
23991;DHT22;12205;50.600;4.608;2023-04-06T07:35:35;7.90;99.90
23991;DHT22;12205;50.600;4.608;2023-04-06T07:38:05;7.90;99.90
23991;DHT22;12205;50.600;4.608;2023-04-06T07:40:33;8.00;99.90
23991;DHT22;12205;50.600;4.608;2023-04-06T07:43:00;8.00;99.90
23991;DHT22;12205;50.600;4.608;2023-04-06T07:45:28;8.10;99.90
23991;DHT22;12205;50.600;4.608;2023-04-06T07:47:57;8.10;99.90
23991;DHT22;12205;50.600;4.608;2023-04-06T07:50:26;8.10;99.90
23991;DHT22;12205;50.600;4.608;2023-04-06T07:52:54;8.20;99.90
23991;DHT22;12205;50.600;4.608;2023-04-06T07:55:23;8.20;99.90
23991;DHT22;12205;50.600;4.608;2023-04-06T07:57:50;8.20;99.90
23991;DHT22;12205;50.600;4.608;2023-04-06T08:00:18;8.20;99.90
23991;DHT22;12205;50.600;4.608;2023-04-06T08:02:46;8.30;99.90
23991;DHT22;12205;50.600;4.608;2023-04-06T08:05:15;8.30;99.90
23991;DHT22;12205;50.600;4.608;2023-04-06T08:07:43;8.40;99.90
23991;DHT22;12205;50.600;4.608;2023-04-06T08:10:10;8.40;99.90
23991;DHT22;12205;50.600;4.608;2023-04-06T08:12:39;8.50;99.90
23991;DHT22;12205;50.600;4.608;2023-04-06T08:15:06;8.50;99.90
23991;DHT22;12205;50.600;4.608;2023-04-06T08:17:34;8.50;99.90
23991;DHT22;12205;50.600;4.608;2023-04-06T08:20:01;8.50;99.90
23991;DHT22;12205;50.600;4.608;2023-04-06T08:22:29;8.60;99.90
23991;DHT22;12205;50.600;4.608;2023-04-06T08:24:57;8.60;99.90
23991;DHT22;12205;50.600;4.608;2023-04-06T08:27:24;8.70;99.90
23991;DHT22;12205;50.600;4.608;2023-04-06T08:29:53;8.80;99.90
23991;DHT22;12205;50.600;4.608;2023-04-06T08:32:20;8.80;99.90
23991;DHT22;12205;50.600;4.608;2023-04-06T08:34:47;8.90;99.90
23991;DHT22;12205;50.600;4.608;2023-04-06T08:37:14;8.80;99.90
23991;DHT22;12205;50.600;4.608;2023-04-06T08:39:41;8.90;99.90
23991;DHT22;12205;50.600;4.608;2023-04-06T08:42:12;9.00;99.90
23991;DHT22;12205;50.600;4.608;2023-04-06T08:44:46;9.10;99.90
23991;DHT22;12205;50.600;4.608;2023-04-06T08:47:17;9.10;99.90
23991;DHT22;12205;50.600;4.608;2023-04-06T08:49:44;9.00;99.90
23991;DHT22;12205;50.600;4.608;2023-04-06T08:52:13;9.00;99.90
23991;DHT22;12205;50.600;4.608;2023-04-06T08:54:44;9.00;99.90
23991;DHT22;12205;50.600;4.608;2023-04-06T08:57:11;9.00;99.90
23991;DHT22;12205;50.600;4.608;2023-04-06T08:59:39;9.00;99.90
23991;DHT22;12205;50.600;4.608;2023-04-06T09:02:14;9.10;99.90
23991;DHT22;12205;50.600;4.608;2023-04-06T09:04:46;9.00;99.90
23991;DHT22;12205;50.600;4.608;2023-04-06T09:07:15;9.00;99.90
23991;DHT22;12205;50.600;4.608;2023-04-06T09:09:43;9.00;99.90
23991;DHT22;12205;50.600;4.608;2023-04-06T09:12:22;9.00;99.90
23991;DHT22;12205;50.600;4.608;2023-04-06T09:14:50;8.80;99.90
23991;DHT22;12205;50.600;4.608;2023-04-06T09:17:23;8.80;99.90
23991;DHT22;12205;50.600;4.608;2023-04-06T09:19:52;8.80;99.90
23991;DHT22;12205;50.600;4.608;2023-04-06T09:22:20;8.70;99.90
23991;DHT22;12205;50.600;4.608;2023-04-06T09:24:49;8.60;99.90
23991;DHT22;12205;50.600;4.608;2023-04-06T09:27:18;8.50;99.90
23991;DHT22;12205;50.600;4.608;2023-04-06T09:30:03;8.40;99.90
23991;DHT22;12205;50.600;4.608;2023-04-06T09:32:44;8.50;99.90
23991;DHT22;12205;50.600;4.608;2023-04-06T09:35:15;8.50;99.90
23991;DHT22;12205;50.600;4.608;2023-04-06T09:37:43;8.50;99.90
23991;DHT22;12205;50.600;4.608;2023-04-06T09:40:12;8.50;99.90
23991;DHT22;12205;50.600;4.608;2023-04-06T09:42:41;8.60;99.90
23991;DHT22;12205;50.600;4.608;2023-04-06T09:45:09;8.60;99.90
23991;DHT22;12205;50.600;4.608;2023-04-06T09:47:39;8.60;99.90
23991;DHT22;12205;50.600;4.608;2023-04-06T09:50:10;8.50;99.90
23991;DHT22;12205;50.600;4.608;2023-04-06T09:52:41;8.50;99.90
23991;DHT22;12205;50.600;4.608;2023-04-06T09:55:20;8.40;99.90
23991;DHT22;12205;50.600;4.608;2023-04-06T09:57:57;8.30;99.90
23991;DHT22;12205;50.600;4.608;2023-04-06T10:00:34;8.40;99.90
23991;DHT22;12205;50.600;4.608;2023-04-06T10:03:18;8.50;99.90
23991;DHT22;12205;50.600;4.608;2023-04-06T10:05:53;8.70;99.90
23991;DHT22;12205;50.600;4.608;2023-04-06T10:08:24;8.80;99.90
23991;DHT22;12205;50.600;4.608;2023-04-06T10:10:55;8.90;99.90
23991;DHT22;12205;50.600;4.608;2023-04-06T10:13:24;8.90;99.90
23991;DHT22;12205;50.600;4.608;2023-04-06T10:15:52;8.90;99.90
23991;DHT22;12205;50.600;4.608;2023-04-06T10:18:20;8.90;99.90
23991;DHT22;12205;50.600;4.608;2023-04-06T10:20:50;8.90;99.90
23991;DHT22;12205;50.600;4.608;2023-04-06T10:23:25;8.90;99.90
23991;DHT22;12205;50.600;4.608;2023-04-06T10:25:59;9.00;99.90
23991;DHT22;12205;50.600;4.608;2023-04-06T10:28:32;9.00;99.90
23991;DHT22;12205;50.600;4.608;2023-04-06T10:31:02;9.00;99.90
23991;DHT22;12205;50.600;4.608;2023-04-06T10:33:34;9.00;99.90
23991;DHT22;12205;50.600;4.608;2023-04-06T10:36:10;9.00;99.90
23991;DHT22;12205;50.600;4.608;2023-04-06T10:38:38;9.00;99.90
23991;DHT22;12205;50.600;4.608;2023-04-06T10:41:07;8.90;99.90
23991;DHT22;12205;50.600;4.608;2023-04-06T10:43:37;8.90;99.90
23991;DHT22;12205;50.600;4.608;2023-04-06T10:46:08;9.00;99.90
23991;DHT22;12205;50.600;4.608;2023-04-06T10:48:41;9.00;99.90
23991;DHT22;12205;50.600;4.608;2023-04-06T10:51:10;8.90;99.90
23991;DHT22;12205;50.600;4.608;2023-04-06T10:53:41;8.90;99.90
23991;DHT22;12205;50.600;4.608;2023-04-06T10:56:10;8.90;99.90
23991;DHT22;12205;50.600;4.608;2023-04-06T10:58:44;8.90;99.90
23991;DHT22;12205;50.600;4.608;2023-04-06T11:01:12;8.90;99.90
23991;DHT22;12205;50.600;4.608;2023-04-06T11:03:47;8.90;99.90
23991;DHT22;12205;50.600;4.608;2023-04-06T11:06:19;8.90;99.90
23991;DHT22;12205;50.600;4.608;2023-04-06T11:08:47;8.90;99.90
23991;DHT22;12205;50.600;4.608;2023-04-06T11:11:15;8.90;99.90
23991;DHT22;12205;50.600;4.608;2023-04-06T11:13:46;9.00;99.90
23991;DHT22;12205;50.600;4.608;2023-04-06T11:16:16;9.00;99.90
23991;DHT22;12205;50.600;4.608;2023-04-06T11:18:49;8.90;99.90
23991;DHT22;12205;50.600;4.608;2023-04-06T11:21:18;8.90;99.90
23991;DHT22;12205;50.600;4.608;2023-04-06T11:23:46;8.80;99.90
23991;DHT22;12205;50.600;4.608;2023-04-06T11:26:14;8.80;99.90
23991;DHT22;12205;50.600;4.608;2023-04-06T11:28:41;8.80;99.90
23991;DHT22;12205;50.600;4.608;2023-04-06T11:31:09;8.80;99.90
23991;DHT22;12205;50.600;4.608;2023-04-06T11:33:38;8.80;99.90
23991;DHT22;12205;50.600;4.608;2023-04-06T11:36:07;8.80;99.90
23991;DHT22;12205;50.600;4.608;2023-04-06T11:38:38;8.90;99.90
23991;DHT22;12205;50.600;4.608;2023-04-06T11:41:06;8.80;99.90
23991;DHT22;12205;50.600;4.608;2023-04-06T11:43:33;8.80;99.90
23991;DHT22;12205;50.600;4.608;2023-04-06T11:46:01;8.70;99.90
23991;DHT22;12205;50.600;4.608;2023-04-06T11:48:29;8.70;99.90
23991;DHT22;12205;50.600;4.608;2023-04-06T11:50:57;8.70;99.90
23991;DHT22;12205;50.600;4.608;2023-04-06T11:53:28;8.80;99.90
23991;DHT22;12205;50.600;4.608;2023-04-06T11:55:55;8.80;99.90
23991;DHT22;12205;50.600;4.608;2023-04-06T11:58:22;8.70;99.90
23991;DHT22;12205;50.600;4.608;2023-04-06T12:00:50;8.70;99.90
23991;DHT22;12205;50.600;4.608;2023-04-06T12:03:17;8.70;99.90
23991;DHT22;12205;50.600;4.608;2023-04-06T12:05:44;8.80;99.90
23991;DHT22;12205;50.600;4.608;2023-04-06T12:08:11;8.90;99.90
23991;DHT22;12205;50.600;4.608;2023-04-06T12:10:40;9.00;99.90
23991;DHT22;12205;50.600;4.608;2023-04-06T12:13:07;9.00;99.90
23991;DHT22;12205;50.600;4.608;2023-04-06T12:15:34;9.10;99.90
23991;DHT22;12205;50.600;4.608;2023-04-06T12:18:02;9.10;99.90
23991;DHT22;12205;50.600;4.608;2023-04-06T12:20:29;9.20;99.90
23991;DHT22;12205;50.600;4.608;2023-04-06T12:22:56;9.20;99.90
23991;DHT22;12205;50.600;4.608;2023-04-06T12:25:23;9.20;99.90
23991;DHT22;12205;50.600;4.608;2023-04-06T12:27:52;9.30;99.90
23991;DHT22;12205;50.600;4.608;2023-04-06T12:30:19;9.30;99.90
23991;DHT22;12205;50.600;4.608;2023-04-06T12:32:47;9.40;99.90
23991;DHT22;12205;50.600;4.608;2023-04-06T12:35:14;9.40;99.90
23991;DHT22;12205;50.600;4.608;2023-04-06T12:37:42;9.40;99.90
23991;DHT22;12205;50.600;4.608;2023-04-06T12:40:10;9.40;99.90
23991;DHT22;12205;50.600;4.608;2023-04-06T12:42:39;9.50;99.90
23991;DHT22;12205;50.600;4.608;2023-04-06T12:45:10;9.30;99.90
23991;DHT22;12205;50.600;4.608;2023-04-06T12:47:37;9.20;99.90
23991;DHT22;12205;50.600;4.608;2023-04-06T12:50:06;9.20;99.90
23991;DHT22;12205;50.600;4.608;2023-04-06T12:52:33;9.20;99.90
23991;DHT22;12205;50.600;4.608;2023-04-06T12:55:02;9.20;99.90
23991;DHT22;12205;50.600;4.608;2023-04-06T12:57:30;9.20;99.90
23991;DHT22;12205;50.600;4.608;2023-04-06T12:59:57;9.30;99.90
23991;DHT22;12205;50.600;4.608;2023-04-06T13:02:27;9.30;99.90
23991;DHT22;12205;50.600;4.608;2023-04-06T13:04:54;9.30;99.90
23991;DHT22;12205;50.600;4.608;2023-04-06T13:07:22;9.40;99.90
23991;DHT22;12205;50.600;4.608;2023-04-06T13:09:49;9.40;99.90
23991;DHT22;12205;50.600;4.608;2023-04-06T13:12:18;9.40;99.90
23991;DHT22;12205;50.600;4.608;2023-04-06T13:14:46;9.40;99.90
23991;DHT22;12205;50.600;4.608;2023-04-06T13:17:16;9.30;99.90
23991;DHT22;12205;50.600;4.608;2023-04-06T13:19:45;9.30;99.90
23991;DHT22;12205;50.600;4.608;2023-04-06T13:22:12;9.20;99.90
23991;DHT22;12205;50.600;4.608;2023-04-06T13:24:41;9.20;99.90
23991;DHT22;12205;50.600;4.608;2023-04-06T13:27:08;9.20;99.90
23991;DHT22;12205;50.600;4.608;2023-04-06T13:29:35;9.20;99.90
23991;DHT22;12205;50.600;4.608;2023-04-06T13:32:03;9.20;99.90
23991;DHT22;12205;50.600;4.608;2023-04-06T13:34:30;9.20;99.90
23991;DHT22;12205;50.600;4.608;2023-04-06T13:36:59;9.20;99.90
23991;DHT22;12205;50.600;4.608;2023-04-06T13:39:26;9.20;99.90
23991;DHT22;12205;50.600;4.608;2023-04-06T13:41:53;9.20;99.90
23991;DHT22;12205;50.600;4.608;2023-04-06T13:44:21;9.20;99.90
23991;DHT22;12205;50.600;4.608;2023-04-06T13:46:48;9.20;99.90
23991;DHT22;12205;50.600;4.608;2023-04-06T13:49:16;9.10;99.90
23991;DHT22;12205;50.600;4.608;2023-04-06T13:51:43;9.20;99.90
23991;DHT22;12205;50.600;4.608;2023-04-06T13:54:11;9.30;99.90
23991;DHT22;12205;50.600;4.608;2023-04-06T13:56:38;9.30;99.90
23991;DHT22;12205;50.600;4.608;2023-04-06T13:59:06;9.30;99.90
23991;DHT22;12205;50.600;4.608;2023-04-06T14:01:33;9.30;99.90
23991;DHT22;12205;50.600;4.608;2023-04-06T14:04:00;9.20;99.90
23991;DHT22;12205;50.600;4.608;2023-04-06T14:06:27;9.20;99.90
23991;DHT22;12205;50.600;4.608;2023-04-06T14:08:54;9.10;99.90
23991;DHT22;12205;50.600;4.608;2023-04-06T14:11:23;9.10;99.90
23991;DHT22;12205;50.600;4.608;2023-04-06T14:13:51;9.20;99.90
23991;DHT22;12205;50.600;4.608;2023-04-06T14:16:18;9.20;99.90
23991;DHT22;12205;50.600;4.608;2023-04-06T14:18:47;9.20;99.90
23991;DHT22;12205;50.600;4.608;2023-04-06T14:21:14;9.20;99.90
23991;DHT22;12205;50.600;4.608;2023-04-06T14:23:41;9.20;99.90
23991;DHT22;12205;50.600;4.608;2023-04-06T14:26:08;9.20;99.90
23991;DHT22;12205;50.600;4.608;2023-04-06T14:28:37;9.20;99.90
23991;DHT22;12205;50.600;4.608;2023-04-06T14:31:11;9.10;99.90
23991;DHT22;12205;50.600;4.608;2023-04-06T14:33:41;9.10;99.90
23991;DHT22;12205;50.600;4.608;2023-04-06T14:36:09;9.10;99.90
23991;DHT22;12205;50.600;4.608;2023-04-06T14:38:36;9.10;99.90
23991;DHT22;12205;50.600;4.608;2023-04-06T14:41:05;9.20;99.90
23991;DHT22;12205;50.600;4.608;2023-04-06T14:43:32;9.20;99.90
23991;DHT22;12205;50.600;4.608;2023-04-06T14:46:01;9.30;99.90
23991;DHT22;12205;50.600;4.608;2023-04-06T14:48:28;9.30;99.90
23991;DHT22;12205;50.600;4.608;2023-04-06T14:50:56;9.40;99.90
23991;DHT22;12205;50.600;4.608;2023-04-06T14:53:24;9.40;99.90
23991;DHT22;12205;50.600;4.608;2023-04-06T14:55:51;9.40;99.90
23991;DHT22;12205;50.600;4.608;2023-04-06T14:58:19;9.40;99.90
23991;DHT22;12205;50.600;4.608;2023-04-06T15:00:46;9.40;99.90
23991;DHT22;12205;50.600;4.608;2023-04-06T15:03:15;9.50;99.90
23991;DHT22;12205;50.600;4.608;2023-04-06T15:05:42;9.60;99.90
23991;DHT22;12205;50.600;4.608;2023-04-06T15:08:09;9.60;99.90
23991;DHT22;12205;50.600;4.608;2023-04-06T15:10:39;9.50;99.90
23991;DHT22;12205;50.600;4.608;2023-04-06T15:13:06;9.50;99.90
23991;DHT22;12205;50.600;4.608;2023-04-06T15:15:33;9.60;99.90
23991;DHT22;12205;50.600;4.608;2023-04-06T15:18:01;9.60;99.90
23991;DHT22;12205;50.600;4.608;2023-04-06T15:20:29;9.70;99.90
23991;DHT22;12205;50.600;4.608;2023-04-06T15:22:57;9.80;99.90
23991;DHT22;12205;50.600;4.608;2023-04-06T15:25:24;9.80;99.90
23991;DHT22;12205;50.600;4.608;2023-04-06T15:27:52;9.80;99.90
23991;DHT22;12205;50.600;4.608;2023-04-06T15:30:20;9.90;99.90
23991;DHT22;12205;50.600;4.608;2023-04-06T15:32:53;9.90;99.90
23991;DHT22;12205;50.600;4.608;2023-04-06T15:35:22;10.00;99.90
23991;DHT22;12205;50.600;4.608;2023-04-06T15:37:52;10.10;99.90
23991;DHT22;12205;50.600;4.608;2023-04-06T15:40:19;10.10;99.90
23991;DHT22;12205;50.600;4.608;2023-04-06T15:42:46;10.10;99.90
23991;DHT22;12205;50.600;4.608;2023-04-06T15:45:13;10.20;99.90
23991;DHT22;12205;50.600;4.608;2023-04-06T15:47:42;10.20;99.90
23991;DHT22;12205;50.600;4.608;2023-04-06T15:50:10;10.30;99.90
23991;DHT22;12205;50.600;4.608;2023-04-06T15:52:38;10.40;99.90
23991;DHT22;12205;50.600;4.608;2023-04-06T15:55:08;10.40;99.90
23991;DHT22;12205;50.600;4.608;2023-04-06T15:57:35;10.50;99.90
23991;DHT22;12205;50.600;4.608;2023-04-06T16:00:03;10.50;99.90